Time;durP1;ratioP1;P1;durP2;ratioP2;P2;SDS_P1;SDS_P2;PMS_P1;PMS_P2;Temp;Humidity;BMP_temperature;BMP_pressure;BME280_temperature;BME280_humidity;BME280_pressure;Samples;Min_cycle;Max_cycle;Signal;HPM_P1;HPM_P2
2023/04/19 00:01:16;;;;;;;93.60;78.93;;;10.20;99.90;;;;;;5127327;28;20024;-82
2023/04/19 00:03:47;;;;;;;82.78;73.85;;;10.20;99.90;;;;;;5127483;28;20029;-82
2023/04/19 00:06:17;;;;;;;74.68;66.50;;;10.10;99.90;;;;;;5125432;28;20031;-82
2023/04/19 00:08:48;;;;;;;81.10;71.10;;;10.30;99.90;;;;;;5127046;28;20035;-81
2023/04/19 00:11:19;;;;;;;86.25;76.85;;;10.40;99.90;;;;;;5125331;28;20491;-82
2023/04/19 00:13:50;;;;;;;102.18;91.18;;;10.30;99.90;;;;;;5126845;28;20023;-82
2023/04/19 00:16:21;;;;;;;83.90;74.88;;;10.50;99.90;;;;;;5126858;28;20024;-82
2023/04/19 00:18:52;;;;;;;79.43;70.90;;;10.50;99.90;;;;;;5126690;28;20046;-82
2023/04/19 00:21:23;;;;;;;70.15;62.85;;;10.30;99.90;;;;;;5126935;28;20031;-82
2023/04/19 00:23:54;;;;;;;67.95;60.78;;;10.40;99.90;;;;;;5126497;28;20037;-83
2023/04/19 00:26:24;;;;;;;72.70;65.18;;;10.50;99.90;;;;;;5126417;28;20023;-81
2023/04/19 00:28:55;;;;;;;72.15;64.65;;;10.50;99.90;;;;;;5126431;28;20035;-82
2023/04/19 00:31:26;;;;;;;69.40;62.28;;;10.40;99.90;;;;;;5126617;28;20027;-81
2023/04/19 00:33:57;;;;;;;70.22;63.20;;;10.50;99.90;;;;;;5126483;28;20086;-82
2023/04/19 00:36:28;;;;;;;68.22;61.33;;;10.50;99.90;;;;;;5126304;28;20027;-82
2023/04/19 00:38:59;;;;;;;69.22;62.22;;;10.50;99.90;;;;;;5125116;28;20080;-82
2023/04/19 00:41:30;;;;;;;66.95;59.97;;;10.50;99.90;;;;;;5126677;28;20051;-82
2023/04/19 00:44:00;;;;;;;72.28;65.00;;;10.60;99.90;;;;;;5126324;28;20518;-81
2023/04/19 00:46:31;;;;;;;67.82;60.60;;;10.70;99.90;;;;;;5126490;28;20019;-82
2023/04/19 00:49:02;;;;;;;67.53;60.55;;;10.60;99.90;;;;;;5126547;28;20078;-82
2023/04/19 00:51:34;;;;;;;68.82;61.78;;;10.60;99.90;;;;;;5132792;28;20487;-82
2023/04/19 00:54:06;;;;;;;64.80;58.22;;;10.70;99.90;;;;;;5129096;28;20378;-82
2023/04/19 00:56:37;;;;;;;69.25;62.17;;;10.70;99.90;;;;;;5146450;28;20018;-82
2023/04/19 00:59:08;;;;;;;72.47;65.13;;;10.70;99.90;;;;;;5145947;28;20050;-82
2023/04/19 01:01:40;;;;;;;72.05;64.25;;;10.80;99.90;;;;;;5146332;28;20490;-81
2023/04/19 01:04:11;;;;;;;70.88;63.25;;;10.80;99.90;;;;;;5146357;28;20066;-81
2023/04/19 01:06:42;;;;;;;69.93;62.40;;;10.80;99.90;;;;;;5146209;28;20055;-82
2023/04/19 01:09:12;;;;;;;65.35;58.80;;;10.70;99.90;;;;;;5146213;28;20046;-82
2023/04/19 01:11:43;;;;;;;64.32;57.45;;;10.80;99.90;;;;;;5128589;28;20027;-82
2023/04/19 01:14:15;;;;;;;60.17;54.15;;;10.80;99.90;;;;;;5128572;28;20243;-81
2023/04/19 01:16:46;;;;;;;57.63;51.95;;;10.80;99.90;;;;;;5145960;28;20038;-82
2023/04/19 01:19:17;;;;;;;62.92;56.63;;;10.80;99.90;;;;;;5128496;28;20058;-80
2023/04/19 01:21:48;;;;;;;61.10;54.55;;;10.80;99.90;;;;;;5145783;28;20037;-82
2023/04/19 01:24:19;;;;;;;59.78;53.83;;;10.90;99.90;;;;;;5128855;28;20517;-83
2023/04/19 01:26:50;;;;;;;57.08;50.30;;;10.80;99.90;;;;;;5145750;28;20059;-83
2023/04/19 01:29:21;;;;;;;56.38;50.67;;;10.90;99.90;;;;;;5128432;28;20038;-83
2023/04/19 01:31:52;;;;;;;54.15;48.90;;;11.00;99.90;;;;;;5128657;28;20030;-82
2023/04/19 01:34:23;;;;;;;56.03;50.90;;;11.00;99.90;;;;;;5129048;28;20027;-82
2023/04/19 01:36:54;;;;;;;51.30;46.30;;;11.00;99.90;;;;;;5149811;28;20030;-81
2023/04/19 01:39:26;;;;;;;42.47;38.58;;;10.90;99.90;;;;;;5149987;28;20046;-81
2023/04/19 01:41:57;;;;;;;41.95;37.92;;;11.00;99.90;;;;;;5132429;28;20023;-82
2023/04/19 01:44:27;;;;;;;43.00;38.75;;;11.10;99.90;;;;;;5149636;28;20532;-81
2023/04/19 01:46:58;;;;;;;39.35;35.65;;;11.00;99.90;;;;;;5149826;28;20023;-82
2023/04/19 01:49:29;;;;;;;34.10;31.05;;;11.10;99.90;;;;;;5149741;28;20041;-82
2023/04/19 01:52:00;;;;;;;34.30;31.08;;;11.00;99.90;;;;;;5131932;28;20101;-82
2023/04/19 01:54:31;;;;;;;33.53;30.42;;;11.00;99.90;;;;;;5132021;28;20050;-82
2023/04/19 01:57:02;;;;;;;35.17;32.17;;;11.00;99.90;;;;;;5149602;28;20029;-82
2023/04/19 01:59:33;;;;;;;34.45;31.35;;;11.00;99.90;;;;;;5149423;28;20035;-82
2023/04/19 02:02:07;;;;;;;33.25;30.17;;;11.00;99.90;;;;;;5149572;28;20034;-82
2023/04/19 02:04:37;;;;;;;33.22;30.20;;;11.10;99.90;;;;;;5132009;28;20027;-82
2023/04/19 02:07:08;;;;;;;32.78;29.35;;;11.20;99.90;;;;;;5132011;28;20050;-82
2023/04/19 02:09:39;;;;;;;34.40;31.40;;;11.10;99.90;;;;;;5132112;28;20031;-82
2023/04/19 02:12:10;;;;;;;31.20;28.52;;;11.10;99.90;;;;;;5131941;28;20557;-81
2023/04/19 02:14:41;;;;;;;31.05;28.48;;;11.20;99.90;;;;;;5149024;28;20027;-82
2023/04/19 02:17:12;;;;;;;35.83;32.80;;;11.00;99.90;;;;;;5149036;28;20371;-81
2023/04/19 02:19:42;;;;;;;34.15;31.13;;;11.10;99.90;;;;;;5149000;28;20053;-81
2023/04/19 02:22:13;;;;;;;33.58;30.92;;;11.10;99.90;;;;;;5149093;28;20384;-82
2023/04/19 02:24:46;;;;;;;32.42;29.75;;;11.00;99.90;;;;;;5149089;28;20041;-80
2023/04/19 02:27:17;;;;;;;32.85;30.15;;;11.10;99.90;;;;;;5149022;28;20029;-81
2023/04/19 02:29:48;;;;;;;31.48;29.02;;;11.10;99.90;;;;;;5148524;28;20052;-82
2023/04/19 02:32:19;;;;;;;32.72;29.92;;;11.00;99.90;;;;;;5148811;28;20026;-82
2023/04/19 02:34:49;;;;;;;32.05;29.55;;;11.10;99.90;;;;;;5148735;28;20026;-81
2023/04/19 02:37:20;;;;;;;31.13;28.73;;;11.00;99.90;;;;;;5131586;28;20042;-81
2023/04/19 02:39:51;;;;;;;30.13;27.63;;;10.90;99.90;;;;;;5148777;28;20042;-81
2023/04/19 02:42:22;;;;;;;33.05;30.45;;;11.00;99.90;;;;;;5148791;28;20030;-81
2023/04/19 02:44:53;;;;;;;31.95;29.27;;;11.10;99.90;;;;;;5148260;28;20057;-82
2023/04/19 02:47:24;;;;;;;32.53;29.92;;;11.10;99.90;;;;;;5148622;28;20153;-82
2023/04/19 02:49:55;;;;;;;30.50;28.13;;;11.20;99.90;;;;;;5131252;28;20030;-82
2023/04/19 02:52:26;;;;;;;32.67;30.00;;;11.00;99.90;;;;;;5130821;28;20093;-82
2023/04/19 02:54:57;;;;;;;32.67;30.05;;;11.00;99.90;;;;;;5131084;28;20085;-82
2023/04/19 02:57:28;;;;;;;30.85;28.30;;;11.00;99.90;;;;;;5148601;28;20027;-82
2023/04/19 02:59:59;;;;;;;31.95;29.38;;;11.00;99.90;;;;;;5148510;28;20035;-82
2023/04/19 03:02:29;;;;;;;33.08;30.38;;;11.10;99.90;;;;;;5131127;28;20026;-82
2023/04/19 03:05:00;;;;;;;34.75;31.98;;;11.20;99.90;;;;;;5148250;28;20490;-82
2023/04/19 03:07:31;;;;;;;37.03;34.22;;;11.20;99.90;;;;;;5148094;28;20038;-82
2023/04/19 03:10:02;;;;;;;38.65;35.33;;;11.30;99.90;;;;;;5130856;28;20038;-83
2023/04/19 03:12:33;;;;;;;45.17;40.92;;;11.30;99.90;;;;;;5148111;28;20027;-82
2023/04/19 03:15:05;;;;;;;44.00;39.78;;;11.30;99.90;;;;;;5148002;28;20549;-82
2023/04/19 03:17:36;;;;;;;42.85;38.35;;;11.10;99.90;;;;;;5130314;28;20067;-82
2023/04/19 03:20:10;;;;;;;42.28;38.03;;;11.20;99.90;;;;;;5148022;28;20070;-82
2023/04/19 03:22:41;;;;;;;43.47;39.22;;;11.10;99.90;;;;;;5148203;28;20027;-83
2023/04/19 03:25:12;;;;;;;46.40;41.65;;;11.20;99.90;;;;;;5154097;28;20026;-83
2023/04/19 03:27:44;;;;;;;53.50;47.85;;;11.20;99.90;;;;;;5156742;28;20027;-83
2023/04/19 03:30:15;;;;;;;63.78;53.20;;;11.10;99.90;;;;;;5155731;28;20030;-81
2023/04/19 03:32:47;;;;;;;80.93;66.18;;;11.10;99.90;;;;;;5154315;28;20031;-80
2023/04/19 03:35:18;;;;;;;66.05;57.92;;;11.20;99.90;;;;;;5154706;28;20367;-81
2023/04/19 03:37:48;;;;;;;74.60;61.17;;;11.20;99.90;;;;;;5155129;28;20023;-82
2023/04/19 03:40:20;;;;;;;71.43;60.72;;;11.20;99.90;;;;;;5136459;28;20043;-81
2023/04/19 03:42:50;;;;;;;81.35;63.17;;;11.20;99.90;;;;;;5153780;28;20023;-82
2023/04/19 03:45:21;;;;;;;92.53;70.47;;;11.20;99.90;;;;;;5155385;28;20041;-78
2023/04/19 03:47:52;;;;;;;87.75;66.43;;;11.20;99.90;;;;;;5152715;28;20019;-82
2023/04/19 03:50:23;;;;;;;74.65;61.35;;;11.20;99.90;;;;;;5130807;28;20063;-82
2023/04/19 03:52:54;;;;;;;60.20;53.08;;;11.30;99.90;;;;;;5147623;28;20526;-82
2023/04/19 03:55:25;;;;;;;61.10;54.50;;;11.20;99.90;;;;;;5130491;28;20023;-82
2023/04/19 03:57:55;;;;;;;57.20;51.38;;;11.30;99.90;;;;;;5129926;28;20031;-81
2023/04/19 04:00:26;;;;;;;49.25;44.17;;;11.40;99.90;;;;;;5147827;28;20038;-81
2023/04/19 04:02:57;;;;;;;50.40;45.50;;;11.30;99.90;;;;;;5130353;28;20030;-82
2023/04/19 04:05:28;;;;;;;47.83;43.45;;;11.40;99.90;;;;;;5147733;28;20026;-82
2023/04/19 04:07:59;;;;;;;45.45;41.08;;;11.20;99.90;;;;;;5130442;28;20023;-82
2023/04/19 04:10:30;;;;;;;40.92;36.92;;;11.30;99.90;;;;;;5147663;28;20066;-82
2023/04/19 04:13:01;;;;;;;42.03;38.15;;;11.40;99.90;;;;;;5129515;28;20034;-82
2023/04/19 04:15:31;;;;;;;43.85;39.80;;;11.40;99.90;;;;;;5129681;28;20049;-82
2023/04/19 04:18:02;;;;;;;41.97;37.92;;;11.30;99.90;;;;;;5146960;28;20034;-82
2023/04/19 04:20:33;;;;;;;38.22;35.00;;;11.30;99.90;;;;;;5146739;28;20418;-82
2023/04/19 04:23:04;;;;;;;37.85;34.60;;;11.20;99.90;;;;;;5146909;28;20027;-82
2023/04/19 04:25:36;;;;;;;37.38;33.85;;;11.30;99.90;;;;;;5129438;28;20345;-82
2023/04/19 04:28:07;;;;;;;36.33;33.10;;;11.20;99.90;;;;;;5146844;28;20046;-82
2023/04/19 04:30:39;;;;;;;35.85;32.63;;;11.20;99.90;;;;;;5146984;28;20023;-83
2023/04/19 04:33:10;;;;;;;36.95;33.75;;;11.20;99.90;;;;;;5146642;28;20022;-81
2023/04/19 04:35:42;;;;;;;36.17;33.08;;;11.40;99.90;;;;;;5129433;28;20031;-82
2023/04/19 04:38:13;;;;;;;36.55;33.53;;;11.40;99.90;;;;;;5129209;28;20031;-82
2023/04/19 04:40:54;;;;;;;35.00;32.13;;;11.40;99.90;;;;;;5146823;28;20459;-82
2023/04/19 04:43:28;;;;;;;37.03;34.13;;;11.40;99.90;;;;;;5146488;28;20154;-81
2023/04/19 04:45:59;;;;;;;30.67;28.55;;;11.30;99.90;;;;;;5129073;28;20022;-81
2023/04/19 04:48:30;;;;;;;27.55;25.65;;;11.20;99.90;;;;;;5146494;28;20492;-81
2023/04/19 04:51:01;;;;;;;28.77;26.88;;;11.40;99.90;;;;;;5145805;28;20031;-81
2023/04/19 04:53:32;;;;;;;28.80;26.67;;;11.30;99.90;;;;;;5146364;28;20034;-81
2023/04/19 04:56:03;;;;;;;30.25;28.35;;;11.40;99.90;;;;;;5146783;28;20178;-81
2023/04/19 04:58:34;;;;;;;30.70;28.73;;;11.50;99.90;;;;;;5146004;28;20058;-82
2023/04/19 05:01:04;;;;;;;33.92;31.58;;;11.70;99.90;;;;;;5147360;28;20149;-82
2023/04/19 05:03:35;;;;;;;37.15;34.45;;;11.70;99.90;;;;;;5166308;28;20548;-81
2023/04/19 05:06:06;;;;;;;39.10;35.90;;;11.70;99.90;;;;;;5166068;28;20034;-81
2023/04/19 05:08:37;;;;;;;41.45;38.03;;;11.70;99.90;;;;;;5165051;28;20010;-81
2023/04/19 05:11:08;;;;;;;36.10;33.25;;;11.50;99.90;;;;;;5165428;28;20023;-83
2023/04/19 05:13:39;;;;;;;39.63;36.45;;;11.60;99.90;;;;;;5165597;28;20382;-81
2023/04/19 05:16:10;;;;;;;33.47;30.80;;;11.40;99.90;;;;;;5166215;28;20025;-81
2023/04/19 05:18:41;;;;;;;36.45;33.72;;;11.50;99.90;;;;;;5166270;28;20061;-81
2023/04/19 05:21:12;;;;;;;30.48;27.95;;;11.30;99.90;;;;;;5165978;28;20494;-82
2023/04/19 05:23:43;;;;;;;32.60;30.10;;;11.40;99.90;;;;;;5166085;28;20035;-81
2023/04/19 05:26:14;;;;;;;35.05;32.38;;;11.60;99.90;;;;;;5166307;28;20057;-80
2023/04/19 05:28:45;;;;;;;36.33;33.55;;;11.60;99.90;;;;;;5148779;28;20031;-81
2023/04/19 05:31:17;;;;;;;39.25;36.22;;;11.80;99.90;;;;;;5165661;28;20436;-80
2023/04/19 05:33:47;;;;;;;39.75;36.60;;;11.70;99.90;;;;;;5165879;28;20450;-81
2023/04/19 05:36:18;;;;;;;39.83;37.05;;;11.70;99.90;;;;;;5165950;28;20033;-81
2023/04/19 05:38:49;;;;;;;43.90;40.70;;;11.70;99.90;;;;;;5165957;28;20057;-82
2023/04/19 05:41:20;;;;;;;41.10;38.30;;;11.70;99.90;;;;;;5165733;28;20443;-82
2023/04/19 05:43:51;;;;;;;42.88;39.58;;;11.70;99.90;;;;;;5148313;28;20425;-82
2023/04/19 05:46:21;;;;;;;40.13;37.33;;;11.80;99.90;;;;;;5165837;28;20023;-81
2023/04/19 05:48:52;;;;;;;38.75;35.85;;;11.70;99.90;;;;;;5148686;28;20031;-81
2023/04/19 05:51:23;;;;;;;39.17;36.60;;;11.80;99.90;;;;;;5165730;28;20045;-81
2023/04/19 05:53:54;;;;;;;39.17;36.58;;;11.80;99.90;;;;;;5148408;28;20041;-81
2023/04/19 05:56:25;;;;;;;38.38;35.92;;;11.80;99.90;;;;;;5148695;28;20522;-83
2023/04/19 05:58:56;;;;;;;36.22;34.03;;;11.80;99.90;;;;;;5148404;28;20343;-80
2023/04/19 06:01:27;;;;;;;37.20;34.90;;;11.70;99.90;;;;;;5148438;28;20129;-81
2023/04/19 06:03:57;;;;;;;36.53;34.33;;;11.80;99.90;;;;;;5165950;28;20077;-81
2023/04/19 06:06:28;;;;;;;39.17;36.80;;;11.80;99.90;;;;;;5149009;28;20029;-80
2023/04/19 06:08:59;;;;;;;40.95;38.33;;;11.90;99.90;;;;;;5149147;28;20030;-80
2023/04/19 06:11:30;;;;;;;38.17;35.85;;;11.90;99.90;;;;;;5166350;28;20496;-80
2023/04/19 06:14:01;;;;;;;37.78;35.28;;;11.90;99.90;;;;;;5165940;28;20072;-80
2023/04/19 06:16:32;;;;;;;39.08;36.67;;;12.10;99.90;;;;;;5166249;28;20018;-81
2023/04/19 06:19:03;;;;;;;39.70;37.17;;;12.00;99.90;;;;;;5148685;28;20030;-80
2023/04/19 06:21:34;;;;;;;38.90;35.92;;;12.20;99.90;;;;;;5168860;28;20069;-81
2023/04/19 06:24:08;;;;;;;45.33;42.22;;;12.10;99.90;;;;;;5170301;28;20030;-80
2023/04/19 06:26:39;;;;;;;45.10;41.40;;;12.10;99.90;;;;;;5169558;28;20105;-76
2023/04/19 06:29:09;;;;;;;46.83;43.47;;;12.10;99.90;;;;;;5152178;28;20125;-80
2023/04/19 06:31:41;;;;;;;47.33;43.63;;;12.30;99.90;;;;;;5169333;28;20026;-81
2023/04/19 06:34:12;;;;;;;46.80;42.75;;;12.20;99.90;;;;;;5151931;28;20058;-81
2023/04/19 06:36:43;;;;;;;47.03;42.85;;;12.20;99.90;;;;;;5151445;28;20061;-80
2023/04/19 06:39:14;;;;;;;49.53;44.85;;;12.20;99.90;;;;;;5168562;28;20049;-81
2023/04/19 06:41:45;;;;;;;41.35;37.92;;;12.20;99.90;;;;;;5168582;28;20030;-80
2023/04/19 06:44:16;;;;;;;42.33;38.90;;;12.30;99.90;;;;;;5151203;28;20029;-82
2023/04/19 06:46:47;;;;;;;44.55;40.58;;;12.30;99.90;;;;;;5169580;28;20401;-81
2023/04/19 06:49:17;;;;;;;47.22;43.42;;;12.50;99.90;;;;;;5169785;28;20025;-80
2023/04/19 06:51:48;;;;;;;47.85;43.65;;;12.50;99.90;;;;;;5147644;28;20100;-81
2023/04/19 06:54:19;;;;;;;46.45;42.53;;;12.70;99.90;;;;;;5148378;28;20062;-82
2023/04/19 06:56:50;;;;;;;49.75;45.40;;;12.70;99.90;;;;;;5149687;28;20165;-81
2023/04/19 06:59:21;;;;;;;50.65;46.00;;;12.70;99.90;;;;;;5149211;28;20042;-81
2023/04/19 07:01:52;;;;;;;47.38;42.85;;;12.70;99.90;;;;;;5149556;28;20374;-81
2023/04/19 07:04:25;;;;;;;45.38;41.00;;;12.70;99.90;;;;;;5149109;28;20027;-81
2023/04/19 07:06:56;;;;;;;44.72;40.83;;;12.80;99.90;;;;;;5149078;28;20070;-81
2023/04/19 07:09:28;;;;;;;45.25;40.88;;;12.70;99.90;;;;;;5148825;28;20109;-82
2023/04/19 07:11:58;;;;;;;46.78;42.78;;;12.80;99.90;;;;;;5148983;28;20062;-81
2023/04/19 07:14:29;;;;;;;42.33;38.45;;;12.80;99.90;;;;;;5148589;28;20453;-81
2023/04/19 07:17:00;;;;;;;44.58;40.28;;;12.90;99.90;;;;;;5148908;28;20046;-81
2023/04/19 07:19:31;;;;;;;43.05;39.20;;;13.10;99.90;;;;;;5148643;28;20519;-81
2023/04/19 07:22:02;;;;;;;45.03;40.95;;;12.90;99.90;;;;;;5148484;28;20045;-82
2023/04/19 07:24:33;;;;;;;43.83;39.90;;;12.90;99.90;;;;;;5147213;28;20117;-82
2023/04/19 07:27:04;;;;;;;41.83;38.03;;;13.00;99.90;;;;;;5147753;28;20158;-81
2023/04/19 07:29:35;;;;;;;47.90;43.38;;;13.10;99.90;;;;;;5147112;28;20037;-83
2023/04/19 07:32:06;;;;;;;48.10;43.13;;;13.10;99.90;;;;;;5146956;28;20022;-82
2023/04/19 07:34:37;;;;;;;49.13;43.97;;;13.10;99.90;;;;;;5146105;28;20168;-82
2023/04/19 07:37:08;;;;;;;48.53;43.78;;;13.30;99.90;;;;;;5147774;28;20058;-82
2023/04/19 07:39:39;;;;;;;49.83;44.80;;;13.30;99.90;;;;;;5148017;28;20742;-82
2023/04/19 07:42:10;;;;;;;48.22;43.38;;;13.10;99.90;;;;;;5147081;28;20106;-81
2023/04/19 07:44:41;;;;;;;49.85;44.88;;;13.40;99.90;;;;;;5147742;28;20058;-82
2023/04/19 07:47:12;;;;;;;50.88;46.03;;;13.60;99.90;;;;;;5148789;28;20027;-80
2023/04/19 07:49:43;;;;;;;48.50;43.95;;;13.90;99.90;;;;;;5147584;28;20367;-76
2023/04/19 07:52:14;;;;;;;49.40;44.80;;;14.10;99.90;;;;;;5159699;28;20498;-83
2023/04/19 07:54:45;;;;;;;51.55;46.65;;;14.00;99.90;;;;;;5168299;28;20041;-85
2023/04/19 07:57:16;;;;;;;55.47;49.65;;;14.10;99.90;;;;;;5170043;28;20018;-84
2023/04/19 07:59:47;;;;;;;55.63;49.92;;;14.10;99.90;;;;;;5150141;28;20050;-81
2023/04/19 08:02:18;;;;;;;54.08;48.75;;;14.30;99.90;;;;;;5151090;28;20105;-85
2023/04/19 08:04:50;;;;;;;50.25;45.50;;;14.50;99.90;;;;;;5167670;28;20031;-81
2023/04/19 08:07:22;;;;;;;52.65;47.55;;;14.30;99.90;;;;;;5167868;28;20134;-82
2023/04/19 08:09:54;;;;;;;53.40;48.22;;;14.30;99.90;;;;;;5152229;28;20090;-80
2023/04/19 08:12:25;;;;;;;52.10;47.00;;;14.20;99.90;;;;;;5147124;28;20023;-82
2023/04/19 08:14:56;;;;;;;56.00;50.72;;;14.30;99.90;;;;;;5147236;28;20031;-82
2023/04/19 08:17:27;;;;;;;52.97;48.17;;;14.60;99.90;;;;;;5147346;28;20475;-80
2023/04/19 08:19:58;;;;;;;60.67;54.67;;;14.30;99.90;;;;;;5129847;28;20094;-80
2023/04/19 08:22:29;;;;;;;55.72;49.95;;;14.50;99.90;;;;;;5147625;28;20027;-81
2023/04/19 08:25:00;;;;;;;61.28;55.42;;;14.60;99.90;;;;;;5147710;28;20054;-83
2023/04/19 08:27:30;;;;;;;56.53;51.03;;;14.80;99.90;;;;;;5147188;28;20054;-82
2023/04/19 08:30:02;;;;;;;58.65;52.72;;;14.70;99.90;;;;;;5129697;28;20022;-82
2023/04/19 08:32:33;;;;;;;59.08;53.63;;;14.90;99.90;;;;;;5147047;28;20390;-82
2023/04/19 08:35:04;;;;;;;61.70;55.70;;;14.70;99.90;;;;;;5147107;28;20027;-81
2023/04/19 08:37:35;;;;;;;57.00;51.75;;;14.80;99.90;;;;;;5147145;28;20034;-82
2023/04/19 08:40:07;;;;;;;55.65;50.38;;;15.00;99.90;;;;;;5146964;28;20035;-81
2023/04/19 08:42:38;;;;;;;51.38;46.60;;;15.20;99.90;;;;;;5146372;28;20031;-83
2023/04/19 08:45:12;;;;;;;51.08;46.40;;;15.30;99.90;;;;;;5129110;28;20089;-82
2023/04/19 08:47:43;;;;;;;50.88;46.10;;;15.50;99.90;;;;;;5146757;28;20015;-82
2023/04/19 08:50:15;;;;;;;48.63;44.28;;;15.90;99.90;;;;;;5129104;28;20129;-82
2023/04/19 08:52:46;;;;;;;47.92;43.28;;;16.20;99.90;;;;;;5129131;28;20061;-83
2023/04/19 08:55:17;;;;;;;41.15;37.03;;;16.30;99.90;;;;;;5146737;28;20106;-83
2023/04/19 08:57:48;;;;;;;42.20;38.20;;;16.10;99.90;;;;;;5146965;28;20086;-83
2023/04/19 09:00:20;;;;;;;37.75;34.55;;;16.50;99.90;;;;;;5146671;28;20121;-83
2023/04/19 09:02:53;;;;;;;40.45;36.85;;;16.40;99.90;;;;;;5146633;28;20486;-82
2023/04/19 09:05:24;;;;;;;39.03;35.60;;;16.30;99.90;;;;;;5146815;28;20131;-82
2023/04/19 09:08:22;;;;;;;33.28;30.35;;;16.70;99.90;;;;;;5146923;28;20023;-83
2023/04/19 09:11:00;;;;;;;37.65;34.60;;;16.30;99.90;;;;;;5146739;28;20033;-83
2023/04/19 09:13:31;;;;;;;36.08;33.03;;;16.40;99.90;;;;;;5146355;28;20030;-83
2023/04/19 09:16:04;;;;;;;37.17;34.08;;;16.40;99.90;;;;;;5146542;28;20163;-83
2023/04/19 09:18:56;;;;;;;38.03;34.90;;;16.30;99.90;;;;;;5146440;28;20019;-83
2023/04/19 09:21:28;;;;;;;39.17;35.72;;;16.40;99.90;;;;;;5146807;28;20122;-83
2023/04/19 09:23:59;;;;;;;37.80;34.55;;;16.40;99.90;;;;;;5146287;28;20035;-83
2023/04/19 09:26:31;;;;;;;36.58;33.55;;;16.40;99.90;;;;;;5129333;28;20502;-83
2023/04/19 09:29:06;;;;;;;37.35;33.97;;;16.40;99.90;;;;;;5129380;28;20074;-83
2023/04/19 09:31:37;;;;;;;36.40;33.28;;;16.50;99.90;;;;;;5146417;28;20022;-83
2023/04/19 09:34:13;;;;;;;36.10;33.00;;;16.50;99.90;;;;;;5146249;28;20019;-83
2023/04/19 09:36:45;;;;;;;39.95;36.65;;;16.30;99.90;;;;;;5146545;28;20074;-83
2023/04/19 09:39:32;;;;;;;37.13;34.03;;;16.30;99.90;;;;;;5146240;28;20390;-83
2023/04/19 09:42:03;;;;;;;35.72;32.53;;;16.30;99.90;;;;;;5145646;28;20069;-83
2023/04/19 09:44:34;;;;;;;38.15;35.05;;;16.20;99.90;;;;;;5128725;28;20475;-83
2023/04/19 09:47:25;;;;;;;38.40;35.15;;;16.00;99.90;;;;;;5146162;28;20105;-83
2023/04/19 09:50:07;;;;;;;34.42;31.25;;;16.20;99.90;;;;;;5128625;28;20170;-83
2023/04/19 09:52:38;;;;;;;33.83;30.52;;;15.90;99.90;;;;;;5145559;28;20081;-83
2023/04/19 09:55:09;;;;;;;31.25;28.40;;;15.50;99.90;;;;;;5146340;28;20023;-83
2023/04/19 09:57:40;;;;;;;33.47;30.42;;;15.30;99.90;;;;;;5150154;28;20023;-82
2023/04/19 10:00:14;;;;;;;34.55;31.73;;;15.10;99.90;;;;;;5149983;28;20398;-83
2023/04/19 10:02:53;;;;;;;34.28;31.02;;;15.20;99.90;;;;;;5149731;28;20101;-82
2023/04/19 10:05:24;;;;;;;34.95;31.83;;;15.00;99.90;;;;;;5150215;28;20077;-82
2023/04/19 10:07:58;;;;;;;37.45;34.15;;;14.90;99.90;;;;;;5149811;28;20035;-83
2023/04/19 10:10:31;;;;;;;38.22;34.97;;;14.90;99.90;;;;;;5149735;28;20022;-82
2023/04/19 10:13:04;;;;;;;36.92;33.45;;;14.80;99.90;;;;;;5131934;28;20110;-83
2023/04/19 10:15:36;;;;;;;36.28;33.28;;;14.50;99.90;;;;;;5132673;28;20367;-83
2023/04/19 10:18:08;;;;;;;40.85;37.00;;;14.50;99.90;;;;;;5149833;28;20033;-82
2023/04/19 10:21:02;;;;;;;36.15;32.78;;;14.50;99.90;;;;;;5149769;28;20035;-83
2023/04/19 10:23:34;;;;;;;37.28;33.50;;;14.60;99.90;;;;;;5149817;28;20077;-83
2023/04/19 10:26:06;;;;;;;34.60;31.77;;;14.70;99.90;;;;;;5132356;28;20030;-82
2023/04/19 10:28:37;;;;;;;37.28;34.22;;;14.30;99.90;;;;;;5132156;28;20027;-82
2023/04/19 10:31:15;;;;;;;37.20;34.17;;;14.30;99.90;;;;;;5132172;28;20027;-83
2023/04/19 10:33:47;;;;;;;39.25;36.05;;;14.20;99.90;;;;;;5149285;28;20042;-82
2023/04/19 10:36:19;;;;;;;38.08;35.13;;;14.30;99.90;;;;;;5149519;28;20382;-82
2023/04/19 10:38:51;;;;;;;38.00;34.85;;;14.60;99.90;;;;;;5149420;28;20173;-81
2023/04/19 10:41:22;;;;;;;37.22;34.17;;;14.60;99.90;;;;;;5149048;28;20031;-83
2023/04/19 10:43:56;;;;;;;37.33;34.42;;;14.60;99.90;;;;;;5131633;28;20479;-82
2023/04/19 10:46:28;;;;;;;36.70;33.47;;;14.40;99.90;;;;;;5131829;28;20077;-83
2023/04/19 10:49:00;;;;;;;41.85;38.47;;;14.40;99.90;;;;;;5149071;28;20023;-82
2023/04/19 10:51:42;;;;;;;40.20;36.78;;;14.50;99.90;;;;;;5131524;28;20046;-81
2023/04/19 10:54:31;;;;;;;40.05;36.70;;;14.50;99.90;;;;;;5131624;28;20050;-83
2023/04/19 10:57:07;;;;;;;39.53;36.33;;;14.60;99.90;;;;;;5149347;28;20359;-82
2023/04/19 10:59:43;;;;;;;41.88;38.15;;;14.70;99.90;;;;;;5131788;28;20494;-82
2023/04/19 11:02:26;;;;;;;42.50;39.10;;;14.40;99.90;;;;;;5149058;28;20022;-83
2023/04/19 11:04:59;;;;;;;43.13;39.58;;;14.30;99.90;;;;;;5148979;28;20026;-82
2023/04/19 11:07:38;;;;;;;44.03;40.50;;;14.30;99.90;;;;;;5131502;28;20483;-82
2023/04/19 11:10:10;;;;;;;44.70;40.83;;;14.40;99.90;;;;;;5149050;28;20463;-82
2023/04/19 11:12:44;;;;;;;43.88;39.88;;;14.40;99.90;;;;;;5148347;28;20073;-83
2023/04/19 11:15:15;;;;;;;46.90;42.90;;;14.30;99.90;;;;;;5131229;28;20554;-82
2023/04/19 11:17:49;;;;;;;46.50;42.58;;;14.50;99.90;;;;;;5148860;28;20093;-82
2023/04/19 11:20:23;;;;;;;48.03;43.75;;;14.50;99.90;;;;;;5142303;28;20141;-80
2023/04/19 11:22:59;;;;;;;48.53;44.20;;;14.50;99.90;;;;;;5151144;28;20038;-81
2023/04/19 11:25:32;;;;;;;44.75;40.80;;;14.60;99.90;;;;;;5151156;28;20125;-81
2023/04/19 11:28:03;;;;;;;44.20;40.60;;;14.60;99.90;;;;;;5150940;28;20498;-81
2023/04/19 11:30:34;;;;;;;44.42;40.72;;;14.40;99.90;;;;;;5136418;28;20050;-80
2023/04/19 11:33:05;;;;;;;45.15;41.22;;;14.50;99.90;;;;;;5147965;28;20125;-81
2023/04/19 11:35:36;;;;;;;41.95;38.40;;;14.50;99.90;;;;;;5131196;28;20030;-80
2023/04/19 11:38:07;;;;;;;42.22;38.50;;;14.40;99.90;;;;;;5148590;28;20403;-80
2023/04/19 11:40:38;;;;;;;45.42;41.70;;;14.70;99.90;;;;;;5130865;28;20101;-81
2023/04/19 11:43:09;;;;;;;41.92;38.25;;;14.50;99.90;;;;;;5147937;28;20037;-81
2023/04/19 11:45:40;;;;;;;40.88;37.45;;;14.40;99.90;;;;;;5148357;28;20022;-81
2023/04/19 11:48:15;;;;;;;37.67;34.72;;;14.60;99.90;;;;;;5148011;28;20023;-81
2023/04/19 11:50:48;;;;;;;35.63;32.83;;;15.00;99.90;;;;;;5147575;28;20061;-81
2023/04/19 11:53:23;;;;;;;32.80;30.30;;;15.50;99.90;;;;;;5139714;28;20034;-81
2023/04/19 11:55:56;;;;;;;32.50;30.00;;;15.80;99.90;;;;;;5168350;28;20070;-81
2023/04/19 11:58:47;;;;;;;29.70;27.60;;;15.60;99.90;;;;;;5167634;28;20540;-80
2023/04/19 12:01:20;;;;;;;30.33;28.15;;;15.20;99.90;;;;;;5150130;28;20046;-81
2023/04/19 12:03:52;;;;;;;31.98;29.60;;;15.00;99.90;;;;;;5150452;28;20018;-80
2023/04/19 12:06:30;;;;;;;29.80;27.60;;;14.70;99.90;;;;;;5167262;28;20038;-80
2023/04/19 12:09:08;;;;;;;30.45;28.25;;;14.60;99.90;;;;;;5150376;28;20022;-81
2023/04/19 12:11:44;;;;;;;33.63;31.25;;;14.60;99.90;;;;;;5150221;28;20042;-81
2023/04/19 12:14:18;;;;;;;32.50;30.30;;;14.50;99.90;;;;;;5167291;28;20026;-80
2023/04/19 12:17:10;;;;;;;31.42;29.25;;;14.30;99.90;;;;;;5167749;28;20018;-81
2023/04/19 12:19:46;;;;;;;33.78;31.58;;;14.20;99.90;;;;;;5149789;28;20042;-80
2023/04/19 12:22:19;;;;;;;33.00;30.95;;;14.20;99.90;;;;;;5167050;28;20034;-81
2023/04/19 12:24:52;;;;;;;33.08;30.95;;;14.20;99.90;;;;;;5162865;28;20535;-80
2023/04/19 12:27:24;;;;;;;36.03;33.47;;;14.20;99.90;;;;;;5162394;28;20065;-78
2023/04/19 12:29:55;;;;;;;38.00;35.35;;;14.20;99.90;;;;;;5148960;28;20030;-79
2023/04/19 12:32:26;;;;;;;36.83;34.38;;;14.20;99.90;;;;;;5166563;28;20076;-78
2023/04/19 12:34:57;;;;;;;35.65;33.22;;;14.40;99.90;;;;;;5166682;28;20109;-80
2023/04/19 12:37:28;;;;;;;37.22;34.42;;;14.50;99.90;;;;;;5166479;28;20022;-79
2023/04/19 12:39:58;;;;;;;36.88;34.38;;;14.30;99.90;;;;;;5149693;28;20422;-78
2023/04/19 12:42:29;;;;;;;36.40;33.78;;;14.40;99.90;;;;;;5166802;28;20022;-79
2023/04/19 12:45:00;;;;;;;36.97;34.60;;;14.30;99.90;;;;;;5166962;28;20463;-78
2023/04/19 12:47:33;;;;;;;32.92;30.70;;;14.40;99.90;;;;;;5149435;28;20018;-78
2023/04/19 12:50:05;;;;;;;34.33;32.03;;;14.40;99.90;;;;;;5166736;28;20058;-78